Seattle Tacoma International Airport
KSEA : rendu visible

Aérodrome :











RETROUVEZ-NOUS SUR...

 
LOGIN :

S'inscrire | Disclaimer

   EN    FR    IT 

 









Légende :    VFR   VFR Marginal   IFR   IFR Intensif   IFR Très Intensif
Visi : 
Plafond : 
>= 8 km
>= 3000ft
5 à 8 km
1000 à 3000 ft
1500m à 5 km
500 à 1000 ft
800 à 1500m
200 à 500 ft
< 800m
< 200 ft
Symboles :   Orages  Brouillard  Fortes neiges  Fortes précipitations  Vent > 20 kt






- Altitude de l'aérodrome : 433 ft
- Code IATA : SEA


KSEA - Seattle Tacoma International

DERNIER METAR :
  • 210753Z 01011KT 10SM CLR 06/03 A3005 RMK AO2 SLP182 T00610028 401000039

METARs EXPIRÉS :
  • 210653Z 02014KT 10SM CLR 06/02 A3004 RMK AO2 SLP182 T00560022
  • 210553Z 02013KT 10SM CLR 07/02 A3006 RMK AO2 SLP187 T00670022 10089 20056 58006

TAF KSEA
Valide du 21 à 06h jusqu'au 22 à 12h UTC


210539Z 2106/2212 01010KT P6SM SKC
FM211000 04005KT P6SM SKC
TEMPO 2112/2116 1/4SM FG BKN001
FM211600 06003KT P6SM SKC
FM211900 01004KT P6SM SKC
FM212100 34004KT P6SM SKC



MET'MAP, la Météo Aéronautique d'un coup d'oeil ! - Copyright ORBIFLY Décembre 2007 - Disclaimer

ORBIFLY MET'MAP TEAM :

Programmation & Développement : Alexandra Zaïnal
Conception & Développement : Baudouin d'Aumeries
Co-Programmation & Développement : Marc-Olivier Méhu
Soutien technique & logistique : Manuel Goepfert

Contact : metmap@orbifly.com




SOURCES & CREDITS :

   NOAA       Earth
Advisory